createdAt,value
2022-08-03T00:02:19.362Z,4.73
2022-08-03T00:04:52.248Z,3.70
2022-08-03T00:07:19.822Z,4.32
2022-08-03T00:09:47.818Z,4.15
2022-08-03T00:12:15.493Z,4.20
2022-08-03T00:14:43.175Z,4.00
2022-08-03T00:17:11.298Z,5.22
2022-08-03T00:19:38.875Z,4.30
2022-08-03T00:22:06.458Z,4.75
2022-08-03T00:24:36.247Z,5.40
2022-08-03T00:27:03.879Z,6.90
2022-08-03T00:29:31.512Z,6.03
2022-08-03T00:32:00.489Z,4.93
2022-08-03T00:34:32.621Z,4.55
2022-08-03T00:37:16.560Z,5.37
2022-08-03T00:39:46.231Z,5.07
2022-08-03T00:42:14.449Z,5.55
2022-08-03T00:44:43.941Z,6.78
2022-08-03T00:47:12.124Z,6.57
2022-08-03T00:49:41.099Z,7.32
2022-08-03T00:52:10.469Z,6.30
2022-08-03T00:54:38.843Z,8.18
2022-08-03T00:57:07.138Z,5.87
2022-08-03T00:59:35.287Z,7.40
2022-08-03T01:02:02.893Z,6.90
2022-08-03T01:04:30.433Z,6.03
2022-08-03T01:07:23.284Z,6.55
2022-08-03T01:10:01.416Z,8.15
2022-08-03T01:12:35.376Z,7.75
2022-08-03T01:15:11.043Z,7.43
2022-08-03T01:17:53.985Z,7.33
2022-08-03T01:20:22.727Z,8.48
2022-08-03T01:23:09.353Z,7.45
2022-08-03T01:26:00.230Z,7.07
2022-08-03T01:28:52.631Z,6.65
2022-08-03T01:31:25.220Z,8.53
2022-08-03T01:33:58.052Z,6.87
2022-08-03T01:36:41.561Z,7.57
2022-08-03T01:39:11.448Z,7.43
2022-08-03T01:41:44.824Z,9.90
2022-08-03T01:44:29.089Z,7.43
2022-08-03T01:47:02.953Z,8.95
2022-08-03T01:49:33.413Z,7.12
2022-08-03T01:52:05.015Z,6.00
2022-08-03T01:54:40.675Z,7.20
2022-08-03T01:57:09.869Z,6.10
2022-08-03T01:59:39.044Z,10.07
2022-08-03T02:02:28.907Z,6.87
2022-08-03T02:04:57.219Z,8.52
2022-08-03T02:07:26.295Z,7.22
2022-08-03T02:09:54.972Z,11.13
2022-08-03T02:12:25.245Z,9.48
2022-08-03T02:14:54.264Z,7.68
2022-08-03T02:17:39.263Z,10.27
2022-08-03T02:20:13.629Z,6.40
2022-08-03T02:22:42.857Z,9.77
2022-08-03T02:25:12.874Z,7.30
2022-08-03T02:27:51.857Z,8.82
2022-08-03T02:30:21.005Z,8.77
2022-08-03T02:32:52.440Z,6.85
2022-08-03T02:35:21.360Z,6.93
2022-08-03T02:37:53.214Z,6.65
2022-08-03T02:40:23.523Z,7.82
2022-08-03T02:42:53.672Z,8.18
2022-08-03T02:45:22.771Z,6.80
2022-08-03T02:47:54.961Z,6.80
2022-08-03T02:50:24.167Z,8.00
2022-08-03T02:52:53.571Z,7.20
2022-08-03T02:55:23.088Z,8.05
2022-08-03T02:57:51.904Z,8.00
2022-08-03T03:00:27.449Z,7.50
2022-08-03T03:03:01.786Z,7.30
2022-08-03T03:05:54.961Z,7.37
2022-08-03T03:08:24.226Z,7.75
2022-08-03T03:10:59.488Z,8.18
2022-08-03T03:13:28.765Z,6.93
2022-08-03T03:15:57.860Z,7.43
2022-08-03T03:18:25.633Z,7.97
2022-08-03T03:20:54.349Z,8.68
2022-08-03T03:23:22.817Z,8.07
2022-08-03T03:25:51.797Z,9.10
2022-08-03T03:28:20.989Z,7.80
2022-08-03T03:30:52.658Z,9.10
2022-08-03T03:33:22.221Z,9.20
2022-08-03T03:35:51.682Z,8.77
2022-08-03T03:38:20.260Z,8.97
2022-08-03T03:40:49.386Z,8.70
2022-08-03T03:43:18.608Z,9.68
2022-08-03T03:45:47.777Z,9.00
2022-08-03T03:48:16.031Z,10.43
2022-08-03T03:50:44.289Z,9.07
2022-08-03T03:53:13.352Z,8.52
2022-08-03T03:55:59.111Z,10.13
2022-08-03T03:58:30.520Z,8.07
2022-08-03T04:00:58.488Z,10.07
2022-08-03T04:03:26.531Z,10.97
2022-08-03T04:06:12.898Z,9.30
2022-08-03T04:08:59.252Z,9.80
2022-08-03T04:11:31.007Z,9.75
2022-08-03T04:14:19.767Z,8.65
2022-08-03T04:16:52.044Z,11.67
2022-08-03T04:19:27.141Z,10.15
2022-08-03T04:21:58.323Z,14.50
2022-08-03T04:24:39.434Z,22.98
2022-08-03T04:27:09.770Z,16.92
2022-08-03T04:29:48.175Z,65.70
2022-08-03T04:32:17.181Z,39.35
2022-08-03T04:34:45.905Z,20.37
2022-08-03T04:37:33.452Z,19.52
2022-08-03T04:40:03.104Z,22.90
2022-08-03T04:42:31.801Z,17.87
2022-08-03T04:45:01.577Z,19.98
2022-08-03T04:47:33.349Z,17.40
2022-08-03T04:50:03.153Z,13.52
2022-08-03T04:52:31.322Z,10.10
2022-08-03T04:54:58.947Z,11.23
2022-08-03T04:57:26.583Z,14.20
2022-08-03T05:00:02.112Z,18.27
2022-08-03T05:02:32.092Z,12.55
2022-08-03T05:05:00.129Z,13.75
2022-08-03T05:07:35.824Z,13.03
2022-08-03T05:10:16.047Z,17.95
2022-08-03T05:12:48.142Z,24.70
2022-08-03T05:15:16.263Z,18.05
2022-08-03T05:17:44.129Z,19.75
2022-08-03T05:20:11.958Z,23.37
2022-08-03T05:22:40.011Z,17.90
2022-08-03T05:25:07.898Z,14.00
2022-08-03T05:27:36.172Z,14.35
2022-08-03T05:30:30.839Z,9.18
2022-08-03T05:32:53.464Z,9.10
2022-08-03T05:36:02.021Z,11.77
2022-08-03T05:38:09.343Z,8.95
2022-08-03T05:40:37.358Z,9.15
2022-08-03T05:43:04.869Z,10.70
2022-08-03T05:45:32.427Z,11.20
2022-08-03T05:48:00.592Z,11.30
2022-08-03T05:50:28.182Z,7.60
2022-08-03T05:52:59.999Z,8.55
2022-08-03T05:55:27.888Z,7.75
2022-08-03T05:57:56.815Z,8.47
2022-08-03T06:00:25.764Z,8.00
2022-08-03T06:02:53.725Z,9.65
2022-08-03T06:05:21.310Z,9.60
2022-08-03T06:07:48.958Z,10.30
2022-08-03T06:10:36.451Z,8.03
2022-08-03T06:13:04.827Z,9.35
2022-08-03T06:15:33.481Z,7.78
2022-08-03T06:18:02.243Z,9.75
2022-08-03T06:20:30.297Z,8.02
2022-08-03T06:23:01.051Z,11.80
2022-08-03T06:25:29.353Z,7.62
2022-08-03T06:27:57.311Z,6.87
2022-08-03T06:30:25.585Z,8.60
2022-08-03T06:32:53.149Z,9.40
2022-08-03T06:35:20.915Z,9.97
2022-08-03T06:37:50.831Z,8.38
2022-08-03T06:40:29.664Z,8.35
2022-08-03T06:43:02.442Z,13.88
2022-08-03T06:45:31.853Z,9.82
2022-08-03T06:48:05.164Z,11.67
2022-08-03T06:50:33.762Z,8.18
2022-08-03T06:53:02.364Z,9.48
2022-08-03T06:55:30.260Z,7.90
2022-08-03T06:57:59.294Z,9.05
2022-08-03T07:00:30.930Z,7.47
2022-08-03T07:02:58.752Z,8.90
2022-08-03T07:05:26.508Z,7.65
2022-08-03T07:07:59.222Z,7.60
2022-08-03T07:10:27.710Z,8.25
2022-08-03T07:12:56.928Z,7.63
2022-08-03T07:15:54.655Z,9.95
2022-08-03T07:18:13.457Z,9.35
2022-08-03T07:20:41.279Z,8.52
2022-08-03T07:23:09.903Z,10.20
2022-08-03T07:25:39.884Z,9.73
2022-08-03T07:28:08.315Z,9.80
2022-08-03T07:30:36.057Z,8.77
2022-08-03T07:33:04.107Z,8.65
2022-08-03T07:35:31.733Z,12.75
2022-08-03T07:37:59.383Z,9.60
2022-08-03T07:40:31.594Z,9.15
2022-08-03T07:43:00.484Z,9.23
2022-08-03T07:45:28.526Z,8.57
2022-08-03T07:47:56.173Z,7.60
2022-08-03T07:50:23.830Z,8.17
2022-08-03T07:52:53.071Z,9.73
2022-08-03T07:55:22.765Z,9.48
2022-08-03T07:58:01.204Z,7.18
2022-08-03T08:00:29.243Z,9.45
2022-08-03T08:02:57.157Z,8.40
2022-08-03T08:05:24.787Z,7.80
2022-08-03T08:07:52.509Z,8.68
2022-08-03T08:10:20.636Z,10.00
2022-08-03T08:12:48.568Z,7.10
2022-08-03T08:15:16.325Z,8.23
2022-08-03T08:17:49.641Z,10.32
2022-08-03T08:20:30.481Z,8.65
2022-08-03T08:23:19.280Z,8.50
2022-08-03T08:25:53.455Z,7.80
2022-08-03T08:28:32.585Z,11.00
2022-08-03T08:31:01.942Z,9.00
2022-08-03T08:33:42.478Z,8.85
2022-08-03T08:36:17.940Z,7.05
2022-08-03T08:38:45.976Z,7.28
2022-08-03T08:41:14.985Z,9.27
2022-08-03T08:43:43.053Z,9.15
2022-08-03T08:46:12.849Z,7.93
2022-08-03T08:48:50.924Z,7.87
2022-08-03T08:51:20.727Z,11.50
2022-08-03T08:53:51.594Z,7.50
2022-08-03T08:56:20.869Z,8.27
2022-08-03T08:58:52.510Z,9.68
2022-08-03T09:01:20.761Z,8.55
2022-08-03T09:03:48.767Z,6.47
2022-08-03T09:06:16.491Z,6.80
2022-08-03T09:08:44.406Z,8.32
2022-08-03T09:11:12.746Z,9.25
2022-08-03T09:13:40.479Z,11.40
2022-08-03T09:16:14.277Z,8.05
2022-08-03T09:18:44.183Z,7.63
2022-08-03T09:21:34.441Z,8.15
2022-08-03T09:24:06.338Z,7.60
2022-08-03T09:26:37.984Z,9.85
2022-08-03T09:29:14.459Z,7.85
2022-08-03T09:31:45.206Z,7.47
2022-08-03T09:34:15.470Z,7.37
2022-08-03T09:36:50.763Z,7.05
2022-08-03T09:39:40.975Z,7.47
2022-08-03T09:42:14.420Z,12.93
2022-08-03T09:44:48.194Z,12.03
2022-08-03T09:47:28.372Z,11.32
2022-08-03T09:50:15.695Z,9.73
2022-08-03T09:52:49.752Z,7.15
2022-08-03T09:56:30.885Z,9.43
2022-08-03T09:58:11.640Z,7.00
2022-08-03T10:01:03.774Z,10.50
2022-08-03T10:03:36.122Z,10.77
2022-08-03T10:06:28.731Z,8.82
2022-08-03T10:09:07.530Z,8.05
2022-08-03T10:11:40.830Z,6.73
2022-08-03T10:14:19.174Z,7.55
2022-08-03T10:16:47.842Z,6.22
2022-08-03T10:19:16.416Z,6.87
2022-08-03T10:21:50.838Z,8.68
2022-08-03T10:24:25.307Z,7.37
2022-08-03T10:26:54.130Z,7.50
2022-08-03T10:29:25.278Z,7.15
2022-08-03T10:31:58.086Z,8.25
2022-08-03T10:34:29.588Z,7.18
2022-08-03T10:36:59.409Z,6.50
2022-08-03T10:39:29.701Z,6.35
2022-08-03T10:41:59.885Z,6.53
2022-08-03T10:44:38.108Z,6.37
2022-08-03T10:47:06.165Z,6.97
2022-08-03T10:49:35.650Z,7.73
2022-08-03T10:52:12.851Z,8.23
2022-08-03T10:55:07.709Z,6.72
2022-08-03T10:57:58.576Z,7.07
2022-08-03T11:00:30.543Z,7.25
2022-08-03T11:03:01.843Z,6.97
2022-08-03T11:05:32.268Z,6.70
2022-08-03T11:08:19.464Z,8.02
2022-08-03T11:10:48.180Z,9.48
2022-08-03T11:13:17.379Z,6.35
2022-08-03T11:15:47.636Z,8.27
2022-08-03T11:18:15.974Z,6.93
2022-08-03T11:20:46.022Z,11.18
2022-08-03T11:23:15.147Z,8.80
2022-08-03T11:26:08.974Z,9.63
2022-08-03T11:28:38.894Z,7.07
2022-08-03T11:31:46.849Z,7.05
2022-08-03T11:34:11.469Z,7.40
2022-08-03T11:37:17.336Z,6.82
2022-08-03T11:39:48.017Z,6.82
2022-08-03T11:42:25.552Z,11.13
2022-08-03T11:44:58.027Z,6.40
2022-08-03T11:47:27.888Z,8.10
2022-08-03T11:49:59.077Z,8.35
2022-08-03T11:52:28.954Z,6.90
2022-08-03T11:54:57.515Z,9.63
2022-08-03T11:59:16.850Z,6.93
2022-08-03T12:00:29.807Z,7.93
2022-08-03T12:03:02.571Z,8.07
2022-08-03T12:05:51.129Z,7.10
2022-08-03T12:08:30.262Z,9.77
2022-08-03T12:11:00.135Z,8.18
2022-08-03T12:14:45.162Z,7.45
2022-08-03T12:16:25.565Z,8.45
2022-08-03T12:19:04.001Z,7.78
2022-08-03T12:21:32.345Z,6.57
2022-08-03T12:24:02.583Z,6.62
2022-08-03T12:26:31.152Z,8.02
2022-08-03T12:28:58.773Z,8.15
2022-08-03T12:31:26.773Z,6.57
2022-08-03T12:34:03.039Z,9.50
2022-08-03T12:36:33.236Z,6.85
2022-08-03T12:39:07.395Z,7.05
2022-08-03T12:41:37.980Z,8.68
2022-08-03T12:44:07.423Z,8.10
2022-08-03T12:46:45.413Z,6.23
2022-08-03T12:49:18.743Z,6.32
2022-08-03T12:51:46.586Z,7.12
2022-08-03T12:54:18.712Z,6.95
2022-08-03T12:57:09.958Z,9.98
2022-08-03T12:59:52.730Z,7.97
2022-08-03T13:02:24.778Z,6.95
2022-08-03T13:04:54.257Z,6.62
2022-08-03T13:07:22.899Z,13.20
2022-08-03T13:09:53.686Z,7.68
2022-08-03T13:12:26.962Z,7.07
2022-08-03T13:14:59.846Z,8.10
2022-08-03T13:17:28.194Z,7.43
2022-08-03T13:19:56.500Z,7.03
2022-08-03T13:22:27.400Z,6.43
2022-08-03T13:24:57.465Z,7.03
2022-08-03T13:28:03.487Z,8.20
2022-08-03T13:30:17.875Z,6.60
2022-08-03T13:33:00.114Z,7.70
2022-08-03T13:35:27.735Z,12.10
2022-08-03T13:37:55.460Z,6.97
2022-08-03T13:40:30.256Z,5.57
2022-08-03T13:42:58.706Z,6.85
2022-08-03T13:45:27.624Z,5.87
2022-08-03T13:47:55.328Z,11.18
2022-08-03T13:50:23.020Z,9.07
2022-08-03T13:52:50.875Z,10.60
2022-08-03T13:55:18.496Z,6.75
2022-08-03T13:58:06.683Z,7.37
2022-08-03T14:00:34.631Z,9.05
2022-08-03T14:03:10.776Z,18.77
2022-08-03T14:05:41.761Z,6.87
2022-08-03T14:08:10.752Z,8.18
2022-08-03T14:10:40.714Z,6.80
2022-08-03T14:13:10.580Z,6.70
2022-08-03T14:15:38.875Z,12.00
2022-08-03T14:18:12.722Z,7.53
2022-08-03T14:20:48.790Z,8.63
2022-08-03T14:23:19.355Z,7.93
2022-08-03T14:25:51.926Z,7.20
2022-08-03T14:28:24.121Z,12.47
2022-08-03T14:30:52.602Z,8.10
2022-08-03T14:33:20.606Z,7.75
2022-08-03T14:35:48.862Z,7.10
2022-08-03T14:38:17.412Z,7.43
2022-08-03T14:40:45.844Z,6.23
2022-08-03T14:43:14.055Z,6.43
2022-08-03T14:45:42.718Z,7.65
2022-08-03T14:50:29.094Z,8.77
2022-08-03T14:51:00.278Z,6.45
2022-08-03T14:53:28.984Z,7.67
2022-08-03T14:55:56.774Z,5.65
2022-08-03T14:58:27.932Z,7.32
2022-08-03T15:00:56.040Z,6.82
2022-08-03T15:03:25.082Z,7.12
2022-08-03T15:05:54.765Z,6.40
2022-08-03T15:08:23.892Z,6.82
2022-08-03T15:10:53.260Z,10.20
2022-08-03T15:13:21.145Z,9.50
2022-08-03T15:15:49.852Z,8.13
2022-08-03T15:18:17.871Z,12.73
2022-08-03T15:20:46.897Z,9.75
2022-08-03T15:23:15.776Z,8.20
2022-08-03T15:26:29.130Z,6.40
2022-08-03T15:28:32.988Z,8.15
2022-08-03T15:31:01.802Z,6.53
2022-08-03T15:33:29.470Z,8.27
2022-08-03T15:35:57.265Z,10.73
2022-08-03T15:38:26.515Z,6.82
2022-08-03T15:40:55.374Z,10.20
2022-08-03T15:43:23.667Z,7.37
2022-08-03T15:46:26.651Z,10.23
2022-08-03T15:48:42.377Z,9.52
2022-08-03T15:51:10.273Z,10.40
2022-08-03T15:53:38.325Z,8.38
2022-08-03T15:56:11.398Z,7.73
2022-08-03T15:59:09.574Z,7.35
2022-08-03T16:01:28.828Z,8.90
2022-08-03T16:04:11.755Z,11.38
2022-08-03T16:06:55.775Z,10.60
2022-08-03T16:09:42.450Z,6.53
2022-08-03T16:12:16.196Z,9.38
2022-08-03T16:14:52.965Z,7.30
2022-08-03T16:17:22.649Z,5.82
2022-08-03T16:19:54.882Z,9.43
2022-08-03T16:22:24.369Z,5.70
2022-08-03T16:24:53.339Z,7.60
2022-08-03T16:27:37.019Z,8.75
2022-08-03T16:30:11.466Z,10.13
2022-08-03T16:32:39.900Z,9.35
2022-08-03T16:35:08.237Z,6.97
2022-08-03T16:37:38.637Z,7.50
2022-08-03T16:40:17.316Z,7.55
2022-08-03T16:42:47.478Z,6.82
2022-08-03T16:45:15.107Z,6.32
2022-08-03T16:47:42.750Z,7.73
2022-08-03T16:50:19.139Z,6.57
2022-08-03T16:52:48.434Z,5.90
2022-08-03T16:55:43.520Z,6.00
2022-08-03T16:58:05.840Z,9.32
2022-08-03T17:00:41.290Z,7.93
2022-08-03T17:03:12.520Z,6.90
2022-08-03T17:05:49.714Z,6.60
2022-08-03T17:08:18.990Z,7.78
2022-08-03T17:10:55.368Z,6.97
2022-08-03T17:13:38.885Z,8.10
2022-08-03T17:16:09.785Z,8.60
2022-08-03T17:18:53.402Z,6.72
2022-08-03T17:21:30.873Z,7.30
2022-08-03T17:24:12.426Z,7.22
2022-08-03T17:26:44.655Z,8.17
2022-08-03T17:29:13.711Z,6.97
2022-08-03T17:31:49.038Z,11.65
2022-08-03T17:34:19.079Z,9.77
2022-08-03T17:37:03.673Z,8.07
2022-08-03T17:39:57.089Z,6.50
2022-08-03T17:42:38.813Z,6.57
2022-08-03T17:45:07.855Z,6.05
2022-08-03T17:47:43.863Z,6.95
2022-08-03T17:50:24.257Z,7.05
2022-08-03T17:53:07.731Z,5.90
2022-08-03T17:55:55.012Z,8.02
2022-08-03T17:58:52.587Z,7.45
2022-08-03T18:02:00.400Z,6.65
2022-08-03T18:04:34.111Z,6.68
2022-08-03T18:07:11.223Z,6.60
2022-08-03T18:10:03.614Z,5.95
2022-08-03T18:12:53.485Z,5.93
2022-08-03T18:15:25.305Z,6.32
2022-08-03T18:17:55.393Z,6.10
2022-08-03T18:20:32.954Z,5.87
2022-08-03T18:23:04.644Z,8.77
2022-08-03T18:28:25.831Z,5.78
2022-08-03T18:30:55.468Z,12.35
2022-08-03T18:34:16.367Z,7.30
2022-08-03T18:36:22.179Z,6.43
2022-08-03T18:39:02.335Z,7.30
2022-08-03T18:41:35.065Z,7.43
2022-08-03T18:44:08.163Z,6.55
2022-08-03T18:47:08.123Z,7.60
2022-08-03T18:50:03.295Z,5.97
2022-08-03T18:52:39.926Z,6.97
2022-08-03T18:55:20.491Z,5.68
2022-08-03T18:57:55.999Z,6.05
2022-08-03T19:00:42.742Z,5.63
2022-08-03T19:03:22.905Z,5.35
2022-08-03T19:06:08.605Z,10.88
2022-08-03T19:08:55.864Z,8.73
2022-08-03T19:14:17.896Z,10.23
2022-08-03T19:16:49.736Z,5.82
2022-08-03T19:19:18.924Z,6.37
2022-08-03T19:21:48.019Z,6.12
2022-08-03T19:24:17.166Z,6.28
2022-08-03T19:26:51.302Z,7.60
2022-08-03T19:29:22.584Z,5.35
2022-08-03T19:31:59.113Z,5.10
2022-08-03T19:34:29.531Z,11.70
2022-08-03T19:37:00.757Z,6.57
2022-08-03T19:39:31.783Z,5.70
2022-08-03T19:42:12.161Z,6.03
2022-08-03T19:47:46.233Z,7.20
2022-08-03T19:50:16.009Z,6.00
2022-08-03T19:52:45.104Z,4.57
2022-08-03T19:55:12.918Z,4.93
2022-08-03T19:57:43.726Z,6.35
2022-08-03T20:00:14.640Z,4.05
2022-08-03T20:02:43.988Z,6.15
2022-08-03T20:05:15.687Z,5.50
2022-08-03T20:07:48.215Z,6.95
2022-08-03T20:10:18.012Z,4.68
2022-08-03T20:12:46.833Z,4.15
2022-08-03T20:15:18.243Z,3.47
2022-08-03T20:18:00.285Z,4.37
2022-08-03T20:20:34.950Z,4.05
2022-08-03T20:23:06.876Z,4.25
2022-08-03T20:25:55.737Z,4.05
2022-08-03T20:28:50.505Z,4.43
2022-08-03T20:31:32.071Z,6.20
2022-08-03T20:34:04.349Z,5.47
2022-08-03T20:36:32.018Z,4.00
2022-08-03T20:39:00.018Z,4.22
2022-08-03T20:41:28.029Z,4.30
2022-08-03T20:43:59.222Z,3.47
2022-08-03T20:46:31.328Z,3.40
2022-08-03T20:49:05.182Z,3.75
2022-08-03T20:51:50.067Z,3.60
2022-08-03T20:54:29.477Z,3.47
2022-08-03T20:57:04.472Z,3.47
2022-08-03T20:59:50.308Z,3.70
2022-08-03T21:02:30.112Z,3.20
2022-08-03T21:05:03.536Z,3.85
2022-08-03T21:08:05.438Z,3.42
2022-08-03T21:10:38.918Z,3.10
2022-08-03T21:12:58.031Z,6.35
2022-08-03T21:13:01.458Z,7.43
2022-08-03T21:13:09.190Z,6.20
2022-08-03T21:13:18.218Z,4.55
2022-08-03T21:16:12.273Z,4.95
2022-08-03T21:18:43.510Z,3.37
2022-08-03T21:21:14.555Z,3.42
2022-08-03T21:23:48.865Z,3.70
2022-08-03T21:26:21.861Z,5.32
2022-08-03T21:28:51.346Z,3.08
2022-08-03T21:31:25.296Z,4.55
2022-08-03T21:34:05.113Z,4.90
2022-08-03T21:36:35.130Z,4.93
2022-08-03T21:39:05.035Z,5.18
2022-08-03T21:41:33.143Z,3.67
2022-08-03T21:44:01.729Z,2.40
2022-08-03T21:46:37.727Z,4.57
2022-08-03T21:50:07.692Z,2.83
2022-08-03T21:51:59.255Z,4.18
2022-08-03T21:54:36.284Z,7.37
2022-08-03T21:57:06.563Z,3.20
2022-08-03T21:59:37.524Z,2.97
